createdAt,value
2022-10-03T12:25:24.402Z,1.23
2022-10-03T12:28:54.598Z,1.40
2022-10-03T12:32:26.876Z,1.58
2022-10-03T12:35:50.619Z,1.33
2022-10-03T12:39:00.998Z,1.20
2022-10-03T12:42:22.837Z,1.05
2022-10-03T12:45:27.641Z,0.80
2022-10-03T12:48:47.756Z,1.10
2022-10-03T12:51:59.524Z,1.20
2022-10-03T12:55:38.785Z,1.13
2022-10-03T12:58:43.202Z,1.65
2022-10-03T13:02:02.957Z,1.20
2022-10-03T13:05:30.815Z,1.13
2022-10-03T13:08:41.446Z,1.60
2022-10-03T13:12:00.005Z,1.20
2022-10-03T13:15:19.509Z,1.33
2022-10-03T13:18:30.262Z,1.45
2022-10-03T13:21:46.013Z,1.20
2022-10-03T13:25:06.142Z,1.08
2022-10-03T13:28:31.760Z,1.00
2022-10-03T13:31:35.137Z,1.10
2022-10-03T13:35:24.648Z,1.63
2022-10-03T13:38:56.143Z,1.40
2022-10-03T13:42:16.157Z,1.45
2022-10-03T13:45:26.310Z,1.00
2022-10-03T13:48:28.558Z,1.10
2022-10-03T13:52:02.852Z,1.30
2022-10-03T13:55:20.550Z,1.08
2022-10-03T13:58:50.291Z,1.20
2022-10-03T14:02:02.376Z,0.97
2022-10-03T14:05:19.054Z,1.65
2022-10-03T14:08:51.185Z,1.13
2022-10-03T14:12:10.842Z,1.13
2022-10-03T14:15:26.829Z,0.80
2022-10-03T14:18:53.853Z,0.75
2022-10-03T14:22:12.800Z,0.93
2022-10-03T14:25:20.375Z,0.63
2022-10-03T14:28:30.923Z,0.77
2022-10-03T14:31:41.452Z,0.90
2022-10-03T14:35:03.566Z,1.08
2022-10-03T14:38:23.098Z,0.80
2022-10-03T14:41:42.249Z,0.90
2022-10-03T14:44:56.921Z,1.02
2022-10-03T14:48:05.498Z,0.90
2022-10-03T14:51:20.127Z,0.85
2022-10-03T14:54:25.721Z,0.88
2022-10-03T14:57:52.914Z,0.90
2022-10-03T15:01:14.022Z,0.90
2022-10-03T15:04:32.649Z,0.80
2022-10-03T15:07:39.053Z,0.47
2022-10-03T15:10:41.504Z,0.80
2022-10-03T15:13:48.711Z,0.90
2022-10-03T15:16:54.490Z,0.80
2022-10-03T15:19:59.138Z,0.70
2022-10-03T15:23:02.266Z,1.00
2022-10-03T15:26:09.545Z,1.00
2022-10-03T15:29:17.736Z,0.90
2022-10-03T15:32:30.953Z,0.80
2022-10-03T15:35:39.046Z,0.80
2022-10-03T15:38:43.364Z,0.80
2022-10-03T15:42:15.345Z,1.00
2022-10-03T15:45:27.490Z,1.13
2022-10-03T15:48:31.099Z,0.73
2022-10-03T15:51:38.607Z,0.57
2022-10-03T15:54:46.233Z,0.82
2022-10-03T15:57:51.567Z,0.70
2022-10-03T16:01:04.475Z,0.90
2022-10-03T16:04:34.108Z,0.60
2022-10-03T16:07:44.409Z,0.80
2022-10-03T16:11:07.982Z,0.90
2022-10-03T16:14:27.091Z,0.65
2022-10-03T16:17:51.025Z,0.80
2022-10-03T16:21:01.889Z,0.65
2022-10-03T16:24:05.979Z,1.00
2022-10-03T16:27:11.091Z,0.80
2022-10-03T16:30:12.488Z,0.60
2022-10-03T16:33:20.079Z,1.00
2022-10-03T16:36:21.763Z,0.68
2022-10-03T16:39:26.696Z,1.02
2022-10-03T16:42:43.976Z,0.40
2022-10-03T16:45:47.108Z,0.57
2022-10-03T16:49:07.721Z,0.80
2022-10-03T16:52:12.471Z,0.40
2022-10-03T16:55:25.986Z,0.73
2022-10-03T16:58:36.144Z,0.82
2022-10-03T17:01:49.742Z,0.75
2022-10-03T17:05:02.887Z,0.85
2022-10-03T17:08:36.937Z,1.10
2022-10-03T17:11:34.450Z,0.65
2022-10-03T17:14:39.271Z,0.60
2022-10-03T17:17:59.876Z,0.68
2022-10-03T17:21:09.214Z,0.80
2022-10-03T17:24:20.897Z,0.70
2022-10-03T17:27:29.393Z,0.63
2022-10-03T17:30:44.894Z,0.60
2022-10-03T17:34:01.662Z,1.00
2022-10-03T17:37:38.465Z,0.60
2022-10-03T17:40:58.501Z,0.68
2022-10-03T17:44:19.795Z,0.80
2022-10-03T17:47:35.592Z,0.50
2022-10-03T17:51:15.458Z,1.05
2022-10-03T17:54:21.360Z,0.73
2022-10-03T17:57:27.634Z,0.77
2022-10-03T18:00:57.065Z,0.68
2022-10-03T18:04:03.008Z,0.80
2022-10-03T18:07:22.578Z,0.70
2022-10-03T18:10:38.431Z,0.70
2022-10-03T18:13:45.281Z,0.43
2022-10-03T18:16:54.338Z,0.50
2022-10-03T18:20:01.510Z,0.60
2022-10-03T18:23:06.536Z,0.70
2022-10-03T18:26:24.591Z,0.50
2022-10-03T18:29:35.606Z,0.68
2022-10-03T18:32:39.535Z,0.90
2022-10-03T18:35:44.111Z,0.70
2022-10-03T18:38:47.697Z,0.60
2022-10-03T18:41:52.211Z,0.52
2022-10-03T22:51:51.397Z,0.85
2022-10-03T22:54:55.229Z,0.80
2022-10-03T22:57:58.594Z,0.70
2022-10-03T23:01:02.157Z,1.00
2022-10-03T23:04:07.921Z,0.60
2022-10-03T23:07:18.517Z,0.60
2022-10-03T23:13:39.860Z,0.60
2022-10-03T23:16:49.307Z,0.68
2022-10-03T23:19:53.907Z,0.52
2022-10-03T23:23:00.802Z,0.70
2022-10-03T23:26:39.986Z,0.80
2022-10-03T23:29:41.448Z,0.60
2022-10-03T23:32:48.951Z,0.60
2022-10-03T23:35:50.674Z,0.35
2022-10-03T23:38:54.168Z,0.50
2022-10-03T23:42:00.732Z,0.50
2022-10-03T23:45:11.744Z,0.40
2022-10-03T23:48:17.328Z,0.80
2022-10-03T23:51:28.294Z,0.50
2022-10-03T23:54:29.783Z,0.40
2022-10-03T23:57:35.556Z,0.57
